Time;durP1;ratioP1;P1;durP2;ratioP2;P2;SDS_P1;SDS_P2;PMS_P1;PMS_P2;Temp;Humidity;BMP_temperature;BMP_pressure;BME280_temperature;BME280_humidity;BME280_pressure;Samples;Min_cycle;Max_cycle;Signal;HPM_P1;HPM_P2
2022/09/06 00:02:29;;;;;;;;;;;20.40;99.90;;;;;;4984160;28;20012;-78
2022/09/06 00:04:55;;;;;;;;;;;20.40;99.90;;;;;;4984317;28;19926;-78
2022/09/06 00:07:20;;;;;;;;;;;20.40;99.90;;;;;;4983031;28;19926;-78
2022/09/06 00:09:46;;;;;;;;;;;20.40;99.90;;;;;;4982222;28;20301;-78
2022/09/06 00:12:11;;;;;;;;;;;20.40;99.90;;;;;;4983768;28;19933;-78
2022/09/06 00:14:36;;;;;;;;;;;20.40;99.90;;;;;;4981884;28;19930;-77
2022/09/06 00:17:02;;;;;;;;;;;20.40;99.90;;;;;;4983251;28;19926;-78
2022/09/06 00:19:27;;;;;;;;;;;20.40;99.90;;;;;;4983957;28;19980;-78
2022/09/06 00:21:53;;;;;;;;;;;20.40;99.90;;;;;;4967035;28;20028;-78
2022/09/06 00:24:18;;;;;;;;;;;20.50;99.90;;;;;;4963204;28;19930;-78
2022/09/06 00:26:44;;;;;;;;;;;20.50;99.90;;;;;;4952500;28;19941;-78
2022/09/06 00:29:09;;;;;;;;;;;20.40;99.90;;;;;;4957777;28;19941;-78
2022/09/06 00:31:35;;;;;;;;;;;20.40;99.90;;;;;;4981589;28;19932;-77
2022/09/06 00:34:01;;;;;;;;;;;20.50;99.90;;;;;;4987333;28;20296;-78
2022/09/06 00:36:27;;;;;;;;;;;20.40;99.90;;;;;;4967515;28;19968;-78
2022/09/06 00:38:52;;;;;;;;;;;20.50;99.90;;;;;;4967000;28;20579;-77
2022/09/06 00:41:17;;;;;;;;;;;20.50;99.90;;;;;;4967932;28;20394;-78
2022/09/06 00:43:43;;;;;;;;;;;20.50;99.90;;;;;;4967100;28;19934;-78
2022/09/06 00:46:13;;;;;;;;;;;20.40;99.90;;;;;;4966142;28;19926;-78
2022/09/06 00:48:39;;;;;;;;;;;20.50;99.90;;;;;;4967390;28;19972;-78
2022/09/06 00:51:06;;;;;;;;;;;20.50;99.90;;;;;;4966790;28;19965;-78
2022/09/06 00:53:32;;;;;;;;;;;20.50;99.90;;;;;;4960339;28;20608;-78
2022/09/06 00:55:57;;;;;;;;;;;20.40;99.90;;;;;;4958049;28;19934;-78
2022/09/06 00:58:24;;;;;;;;;;;20.40;99.90;;;;;;4953837;28;20025;-78
2022/09/06 01:00:49;;;;;;;;;;;20.50;99.90;;;;;;4953757;28;19922;-77
2022/09/06 01:03:15;;;;;;;;;;;20.50;99.90;;;;;;4958086;28;19932;-78
2022/09/06 01:05:45;;;;;;;;;;;20.40;99.90;;;;;;4982434;28;20266;-78
2022/09/06 01:08:20;;;;;;;;;;;20.50;99.90;;;;;;4984561;28;19925;-78
2022/09/06 01:10:45;;;;;;;;;;;20.50;99.90;;;;;;4986084;28;19979;-78
2022/09/06 01:13:17;;;;;;;;;;;20.40;99.90;;;;;;4986330;28;19925;-78
2022/09/06 01:15:42;;;;;;;;;;;20.40;99.90;;;;;;4986147;28;20289;-78
2022/09/06 01:18:23;;;;;;;;;;;20.40;99.90;;;;;;4986096;28;19926;-78
2022/09/06 01:21:05;;;;;;;;;;;20.40;99.90;;;;;;4982352;28;20323;-78
2022/09/06 01:23:42;;;;;;;;;;;20.40;99.90;;;;;;4984810;28;19926;-78
2022/09/06 01:26:30;;;;;;;;;;;20.40;99.90;;;;;;4972940;28;19925;-78
2022/09/06 01:28:56;;;;;;;;;;;20.40;99.90;;;;;;4965546;28;19968;-78
2022/09/06 01:31:24;;;;;;;;;;;20.40;99.90;;;;;;4967022;28;19965;-78
2022/09/06 01:33:50;;;;;;;;;;;20.30;99.90;;;;;;4966494;28;19949;-78
2022/09/06 01:36:23;;;;;;;;;;;20.30;99.90;;;;;;4983033;28;20380;-78
2022/09/06 01:38:49;;;;;;;;;;;20.30;99.90;;;;;;4985988;28;20604;-78
2022/09/06 01:41:14;;;;;;;;;;;20.30;99.90;;;;;;4985322;28;19928;-78
2022/09/06 01:43:42;;;;;;;;;;;20.30;99.90;;;;;;4985404;28;19932;-77
2022/09/06 01:46:14;;;;;;;;;;;20.30;99.90;;;;;;4984701;28;20072;-77
2022/09/06 01:48:45;;;;;;;;;;;20.30;99.90;;;;;;4978257;28;19930;-78
2022/09/06 01:51:21;;;;;;;;;;;20.30;99.90;;;;;;4953062;28;19934;-78
2022/09/06 01:53:52;;;;;;;;;;;20.20;99.90;;;;;;4956398;28;20420;-78
2022/09/06 01:56:36;;;;;;;;;;;20.20;99.90;;;;;;4957183;28;20348;-78
2022/09/06 01:59:13;;;;;;;;;;;20.20;99.90;;;;;;4952123;28;19961;-78
2022/09/06 02:01:38;;;;;;;;;;;20.20;99.90;;;;;;4955884;28;19938;-78
2022/09/06 02:04:12;;;;;;;;;;;20.20;99.90;;;;;;4953089;28;19976;-78
2022/09/06 02:06:40;;;;;;;;;;;20.20;99.90;;;;;;4980292;28;19951;-78
2022/09/06 02:09:08;;;;;;;;;;;20.20;99.90;;;;;;4983825;28;19972;-78
2022/09/06 02:11:39;;;;;;;;;;;20.20;99.90;;;;;;4983899;28;19980;-78
2022/09/06 02:14:10;;;;;;;;;;;20.10;99.90;;;;;;4985184;28;19925;-77
2022/09/06 02:16:38;;;;;;;;;;;20.10;99.90;;;;;;4977577;28;19934;-78
2022/09/06 02:19:06;;;;;;;;;;;20.10;99.90;;;;;;4954528;28;20402;-78
2022/09/06 02:21:35;;;;;;;;;;;20.10;99.90;;;;;;4952108;28;19980;-78
2022/09/06 02:24:03;;;;;;;;;;;20.10;99.90;;;;;;4952556;28;19940;-78
2022/09/06 02:26:31;;;;;;;;;;;20.10;99.90;;;;;;4951293;28;19941;-78
2022/09/06 02:28:57;;;;;;;;;;;20.10;99.90;;;;;;4951690;28;19926;-78
2022/09/06 02:31:28;;;;;;;;;;;20.10;99.90;;;;;;4959384;28;19926;-78
2022/09/06 02:33:54;;;;;;;;;;;20.00;99.90;;;;;;4956571;28;19926;-78
2022/09/06 02:36:20;;;;;;;;;;;20.00;99.90;;;;;;4951177;28;19944;-77
2022/09/06 02:38:45;;;;;;;;;;;20.00;99.90;;;;;;4953446;28;19941;-78
2022/09/06 02:41:17;;;;;;;;;;;20.00;99.90;;;;;;4967560;28;19937;-78
2022/09/06 02:43:42;;;;;;;;;;;20.00;99.90;;;;;;4957194;28;19926;-78
2022/09/06 02:46:08;;;;;;;;;;;19.90;99.90;;;;;;4952756;28;19936;-78
2022/09/06 02:48:34;;;;;;;;;;;19.90;99.90;;;;;;4953967;28;20360;-78
2022/09/06 02:51:06;;;;;;;;;;;19.90;99.90;;;;;;4954473;28;19933;-78
2022/09/06 02:53:31;;;;;;;;;;;19.90;99.90;;;;;;4953014;28;19981;-78
2022/09/06 02:55:57;;;;;;;;;;;19.80;99.90;;;;;;4954389;28;20021;-78
2022/09/06 02:58:23;;;;;;;;;;;19.80;99.90;;;;;;4951007;28;19934;-78
2022/09/06 03:00:49;;;;;;;;;;;19.90;99.90;;;;;;4952231;28;20004;-78
2022/09/06 03:03:14;;;;;;;;;;;19.90;99.90;;;;;;4950936;28;20335;-78
2022/09/06 03:05:40;;;;;;;;;;;19.80;99.90;;;;;;4952502;28;19953;-78
2022/09/06 03:08:06;;;;;;;;;;;19.80;99.90;;;;;;4958667;28;19932;-78
2022/09/06 03:10:31;;;;;;;;;;;19.80;99.90;;;;;;4952281;28;19934;-78
2022/09/06 03:12:57;;;;;;;;;;;19.80;99.90;;;;;;4953335;28;19922;-78
2022/09/06 03:15:22;;;;;;;;;;;19.80;99.90;;;;;;4962391;28;20012;-77
2022/09/06 03:17:48;;;;;;;;;;;19.80;99.90;;;;;;4970756;28;20285;-77
2022/09/06 03:20:13;;;;;;;;;;;19.80;99.90;;;;;;4953194;28;19933;-78
2022/09/06 03:22:39;;;;;;;;;;;19.70;99.90;;;;;;4955359;28;19941;-78
2022/09/06 03:25:06;;;;;;;;;;;19.70;99.90;;;;;;4952870;28;20918;-77
2022/09/06 03:27:31;;;;;;;;;;;19.70;99.90;;;;;;4952920;28;19982;-78
2022/09/06 03:29:57;;;;;;;;;;;19.70;99.90;;;;;;4984894;28;19965;-77
2022/09/06 03:32:22;;;;;;;;;;;19.60;99.90;;;;;;4981575;28;19933;-77
2022/09/06 03:34:48;;;;;;;;;;;19.60;99.90;;;;;;4977720;28;20304;-78
2022/09/06 03:37:13;;;;;;;;;;;19.60;99.90;;;;;;4964112;28;19926;-77
2022/09/06 03:39:39;;;;;;;;;;;19.60;99.90;;;;;;4964312;28;20016;-78
2022/09/06 03:42:04;;;;;;;;;;;19.60;99.90;;;;;;4965061;28;20399;-77
2022/09/06 03:44:30;;;;;;;;;;;19.50;99.90;;;;;;4963966;28;19957;-78
2022/09/06 03:46:55;;;;;;;;;;;19.50;99.90;;;;;;4964980;28;19933;-77
2022/09/06 03:49:21;;;;;;;;;;;19.50;99.90;;;;;;4977970;28;19922;-77
2022/09/06 03:51:46;;;;;;;;;;;19.50;99.90;;;;;;4981068;28;20443;-77
2022/09/06 03:54:12;;;;;;;;;;;19.50;99.90;;;;;;4983960;28;19926;-77
2022/09/06 03:56:37;;;;;;;;;;;19.50;99.90;;;;;;4982411;28;20288;-78
2022/09/06 03:59:03;;;;;;;;;;;19.40;99.90;;;;;;4983547;28;19932;-78
2022/09/06 04:01:28;;;;;;;;;;;19.40;99.90;;;;;;4983448;28;20345;-77
2022/09/06 04:03:54;;;;;;;;;;;19.40;99.90;;;;;;4982968;28;19925;-78
2022/09/06 04:06:19;;;;;;;;;;;19.40;99.90;;;;;;4979950;28;20373;-78
2022/09/06 04:08:45;;;;;;;;;;;19.30;99.90;;;;;;4967841;28;20009;-77
2022/09/06 04:11:10;;;;;;;;;;;19.30;99.90;;;;;;4966528;28;19926;-77
2022/09/06 04:13:36;;;;;;;;;;;19.30;99.90;;;;;;4967824;28;20008;-77
2022/09/06 04:16:02;;;;;;;;;;;19.30;99.90;;;;;;4966521;28;20004;-78
2022/09/06 04:18:27;;;;;;;;;;;19.30;99.90;;;;;;4956962;28;19940;-77
2022/09/06 04:20:54;;;;;;;;;;;19.30;99.90;;;;;;4954244;28;20134;-77
2022/09/06 04:23:20;;;;;;;;;;;19.30;99.90;;;;;;4957045;28;21056;-77
2022/09/06 04:25:50;;;;;;;;;;;19.30;99.90;;;;;;4952955;28;20428;-77
2022/09/06 04:28:17;;;;;;;;;;;19.30;99.90;;;;;;4956086;28;19925;-78
2022/09/06 04:30:52;;;;;;;;;;;19.20;99.90;;;;;;4966888;28;20032;-78
2022/09/06 04:33:19;;;;;;;;;;;19.20;99.90;;;;;;4953532;28;19937;-78
2022/09/06 04:35:57;;;;;;;;;;;19.20;99.90;;;;;;4957672;28;19926;-78
2022/09/06 04:38:23;;;;;;;;;;;19.10;99.90;;;;;;4954898;28;19941;-78
2022/09/06 04:40:49;;;;;;;;;;;19.10;99.90;;;;;;4953735;28;19979;-78
2022/09/06 04:43:15;;;;;;;;;;;19.10;99.90;;;;;;4956997;28;20527;-78
2022/09/06 04:45:40;;;;;;;;;;;19.00;99.90;;;;;;4954243;28;20310;-78
2022/09/06 04:48:06;;;;;;;;;;;19.00;99.90;;;;;;4952086;28;19934;-78
2022/09/06 04:50:32;;;;;;;;;;;19.00;99.90;;;;;;4953383;28;20044;-77
2022/09/06 04:52:57;;;;;;;;;;;19.00;99.90;;;;;;4955571;28;20621;-79
2022/09/06 04:55:24;;;;;;;;;;;18.90;99.90;;;;;;4952299;28;19934;-78
2022/09/06 04:57:49;;;;;;;;;;;18.90;99.90;;;;;;4961333;28;19996;-78
2022/09/06 05:00:15;;;;;;;;;;;18.90;99.90;;;;;;4956552;28;19933;-78
2022/09/06 05:02:41;;;;;;;;;;;18.80;99.90;;;;;;4953402;28;19933;-78
2022/09/06 05:05:07;;;;;;;;;;;18.80;99.90;;;;;;4955813;28;19956;-78
2022/09/06 05:07:32;;;;;;;;;;;18.80;99.90;;;;;;4953517;28;21619;-78
2022/09/06 05:09:57;;;;;;;;;;;18.70;99.90;;;;;;4953036;28;19930;-78
2022/09/06 05:12:23;;;;;;;;;;;18.70;99.90;;;;;;4953868;28;19942;-78
2022/09/06 05:14:48;;;;;;;;;;;18.70;99.90;;;;;;4951604;28;19934;-78
2022/09/06 05:17:14;;;;;;;;;;;18.70;99.90;;;;;;4951229;28;19933;-77
2022/09/06 05:19:39;;;;;;;;;;;18.60;99.90;;;;;;4952192;28;20739;-78
2022/09/06 05:22:05;;;;;;;;;;;18.60;99.90;;;;;;4958062;28;19934;-78
2022/09/06 05:24:31;;;;;;;;;;;18.60;99.90;;;;;;4954975;28;19953;-78
2022/09/06 05:26:57;;;;;;;;;;;18.60;99.90;;;;;;4958060;28;21503;-78
2022/09/06 05:29:23;;;;;;;;;;;18.60;99.90;;;;;;4954544;28;19934;-79
2022/09/06 05:31:48;;;;;;;;;;;18.60;99.90;;;;;;4956354;28;19934;-79
2022/09/06 05:34:14;;;;;;;;;;;18.50;99.90;;;;;;4955338;28;19941;-79
2022/09/06 05:36:40;;;;;;;;;;;18.50;99.90;;;;;;4955701;28;20305;-78
2022/09/06 05:39:06;;;;;;;;;;;18.50;99.90;;;;;;4954444;28;19941;-79
2022/09/06 05:41:32;;;;;;;;;;;18.50;99.90;;;;;;4953843;28;19934;-78
2022/09/06 05:43:58;;;;;;;;;;;18.40;99.90;;;;;;4953379;28;19977;-76
2022/09/06 05:46:25;;;;;;;;;;;18.50;99.90;;;;;;4961159;28;19933;-77
2022/09/06 05:48:51;;;;;;;;;;;18.40;99.90;;;;;;4956746;28;19934;-74
2022/09/06 05:51:17;;;;;;;;;;;18.40;99.90;;;;;;4952452;28;19938;-76
2022/09/06 05:53:43;;;;;;;;;;;18.40;99.90;;;;;;4954321;28;19941;-75
2022/09/06 05:56:10;;;;;;;;;;;18.40;99.90;;;;;;4956454;28;19926;-76
2022/09/06 05:58:36;;;;;;;;;;;18.40;99.90;;;;;;4950671;28;19926;-77
2022/09/06 06:01:06;;;;;;;;;;;18.30;99.90;;;;;;4952595;28;19942;-76
2022/09/06 06:03:32;;;;;;;;;;;18.30;99.90;;;;;;4989134;28;19941;-82
2022/09/06 06:05:57;;;;;;;;;;;18.30;99.90;;;;;;4979562;28;20162;-73
2022/09/06 06:08:23;;;;;;;;;;;18.30;99.90;;;;;;4964725;28;19926;-75
2022/09/06 06:10:48;;;;;;;;;;;18.20;99.90;;;;;;4982457;28;20427;-76
2022/09/06 06:13:14;;;;;;;;;;;18.20;99.90;;;;;;4982560;28;19933;-76
2022/09/06 06:15:39;;;;;;;;;;;18.20;99.90;;;;;;4983886;28;19932;-76
2022/09/06 06:18:05;;;;;;;;;;;18.10;99.90;;;;;;4983036;28;20274;-80
2022/09/06 06:20:30;;;;;;;;;;;18.10;99.90;;;;;;4968084;28;19926;-79
2022/09/06 06:22:56;;;;;;;;;;;18.20;99.90;;;;;;4965810;28;19926;-79
2022/09/06 06:25:24;;;;;;;;;;;18.10;99.90;;;;;;4964749;28;19933;-79
2022/09/06 06:27:51;;;;;;;;;;;18.20;99.90;;;;;;4963972;28;19930;-79
2022/09/06 06:30:16;;;;;;;;;;;18.10;99.90;;;;;;4987582;28;19926;-80
2022/09/06 06:32:42;;;;;;;;;;;18.20;99.90;;;;;;4969396;28;20305;-79
2022/09/06 06:35:08;;;;;;;;;;;18.20;99.90;;;;;;4962237;28;20447;-79
2022/09/06 06:37:33;;;;;;;;;;;18.20;99.90;;;;;;4964157;28;19949;-79
2022/09/06 06:39:59;;;;;;;;;;;18.20;99.90;;;;;;4963040;28;19926;-79
2022/09/06 06:42:24;;;;;;;;;;;18.20;99.90;;;;;;4964136;28;20396;-79
2022/09/06 06:44:52;;;;;;;;;;;18.20;99.90;;;;;;4964281;28;19930;-79
2022/09/06 06:47:18;;;;;;;;;;;18.30;99.90;;;;;;4963761;28;19926;-80
2022/09/06 06:49:43;;;;;;;;;;;18.30;99.90;;;;;;4963236;28;19930;-79
2022/09/06 06:52:09;;;;;;;;;;;18.30;99.90;;;;;;4964212;28;19973;-79
2022/09/06 06:54:36;;;;;;;;;;;18.30;99.90;;;;;;4962748;28;19933;-79
2022/09/06 06:57:03;;;;;;;;;;;18.40;99.90;;;;;;4963563;28;19926;-79
2022/09/06 06:59:28;;;;;;;;;;;18.40;99.90;;;;;;4963699;28;19927;-79
2022/09/06 07:01:54;;;;;;;;;;;18.50;99.90;;;;;;4964484;28;19926;-79
2022/09/06 07:04:19;;;;;;;;;;;18.50;99.90;;;;;;4964066;28;20016;-80
2022/09/06 07:06:53;;;;;;;;;;;18.50;99.90;;;;;;4961463;28;20045;-79
2022/09/06 07:09:19;;;;;;;;;;;18.60;99.90;;;;;;4963768;28;19930;-80
2022/09/06 07:11:45;;;;;;;;;;;18.70;99.90;;;;;;4963433;28;19926;-79
2022/09/06 07:14:10;;;;;;;;;;;18.70;99.90;;;;;;4962846;28;20395;-79
2022/09/06 07:16:36;;;;;;;;;;;18.70;99.90;;;;;;4963058;28;19934;-79
2022/09/06 07:19:01;;;;;;;;;;;18.70;99.90;;;;;;4963722;28;19933;-79
2022/09/06 07:21:27;;;;;;;;;;;18.70;99.90;;;;;;4963360;28;20020;-80
2022/09/06 07:23:53;;;;;;;;;;;18.80;99.90;;;;;;4962796;28;20222;-79
2022/09/06 07:26:20;;;;;;;;;;;18.80;99.90;;;;;;4963439;28;20301;-80
2022/09/06 07:28:46;;;;;;;;;;;18.80;99.90;;;;;;4963631;28;19926;-80
2022/09/06 07:31:12;;;;;;;;;;;18.90;99.90;;;;;;4963411;28;19927;-79
2022/09/06 07:33:38;;;;;;;;;;;18.90;99.90;;;;;;4962990;28;20168;-80
2022/09/06 07:36:05;;;;;;;;;;;19.00;99.90;;;;;;4978828;28;19926;-79
2022/09/06 07:38:30;;;;;;;;;;;19.00;99.90;;;;;;4982546;28;19926;-79
2022/09/06 07:40:57;;;;;;;;;;;19.00;99.90;;;;;;4982604;28;20000;-80
2022/09/06 07:43:23;;;;;;;;;;;19.00;99.90;;;;;;4982377;28;19973;-80
2022/09/06 07:45:48;;;;;;;;;;;19.00;99.90;;;;;;4982842;28;19973;-80
2022/09/06 07:48:14;;;;;;;;;;;19.00;99.90;;;;;;4981430;28;19922;-79
2022/09/06 07:50:39;;;;;;;;;;;18.90;99.90;;;;;;4981119;28;19926;-80
2022/09/06 07:53:08;;;;;;;;;;;19.00;99.90;;;;;;4983057;28;20368;-79
2022/09/06 07:55:34;;;;;;;;;;;19.00;99.90;;;;;;4982209;28;19925;-79
2022/09/06 07:57:59;;;;;;;;;;;19.00;99.90;;;;;;4982341;28;19926;-79
2022/09/06 08:00:25;;;;;;;;;;;19.00;99.90;;;;;;4982739;28;19957;-80
2022/09/06 08:02:50;;;;;;;;;;;19.10;99.90;;;;;;4982330;28;20028;-80
2022/09/06 08:05:16;;;;;;;;;;;19.10;99.90;;;;;;4980451;28;19921;-80
2022/09/06 08:07:41;;;;;;;;;;;19.10;99.90;;;;;;4982050;28;20444;-80
2022/09/06 08:10:07;;;;;;;;;;;19.20;99.90;;;;;;4981251;28;20389;-79
2022/09/06 08:12:32;;;;;;;;;;;19.10;99.90;;;;;;4982240;28;19922;-80
2022/09/06 08:14:58;;;;;;;;;;;19.20;99.90;;;;;;4982482;28;19980;-80
2022/09/06 08:17:23;;;;;;;;;;;19.30;99.90;;;;;;4981394;28;20323;-80
2022/09/06 08:19:49;;;;;;;;;;;19.30;99.90;;;;;;4981354;28;19992;-80
2022/09/06 08:22:14;;;;;;;;;;;19.40;99.90;;;;;;4982046;28;20436;-80
2022/09/06 08:24:40;;;;;;;;;;;19.40;99.90;;;;;;4982393;28;20376;-79
2022/09/06 08:27:06;;;;;;;;;;;19.40;99.90;;;;;;4982651;28;20385;-80
2022/09/06 08:29:35;;;;;;;;;;;19.40;99.90;;;;;;4981878;28;19926;-80
2022/09/06 08:32:00;;;;;;;;;;;19.50;99.90;;;;;;4982296;28;19933;-79
2022/09/06 08:34:26;;;;;;;;;;;19.50;99.90;;;;;;4978466;28;19930;-80
2022/09/06 08:36:51;;;;;;;;;;;19.60;99.90;;;;;;4962578;28;19926;-80
2022/09/06 08:39:17;;;;;;;;;;;19.70;99.90;;;;;;4962646;28;19997;-80
2022/09/06 08:41:55;;;;;;;;;;;19.70;99.90;;;;;;4962696;28;19927;-80
2022/09/06 08:44:29;;;;;;;;;;;19.70;99.90;;;;;;4962369;28;20227;-80
2022/09/06 08:47:05;;;;;;;;;;;19.80;99.90;;;;;;4963094;28;19926;-79
2022/09/06 08:49:32;;;;;;;;;;;19.80;99.90;;;;;;4960479;28;19981;-79
2022/09/06 08:52:18;;;;;;;;;;;19.90;99.90;;;;;;4965471;28;19980;-80
2022/09/06 08:54:47;;;;;;;;;;;19.90;99.90;;;;;;4954880;28;19930;-80
2022/09/06 08:57:21;;;;;;;;;;;19.90;99.90;;;;;;4966352;28;20016;-80
2022/09/06 08:59:47;;;;;;;;;;;20.00;99.90;;;;;;4966475;28;20013;-80
2022/09/06 09:02:15;;;;;;;;;;;20.00;99.90;;;;;;4965664;28;19922;-80
2022/09/06 09:04:50;;;;;;;;;;;20.10;99.90;;;;;;4979669;28;20448;-79
2022/09/06 09:07:24;;;;;;;;;;;20.10;99.90;;;;;;4966034;28;19926;-80
2022/09/06 09:09:51;;;;;;;;;;;20.10;99.90;;;;;;4965762;28;19976;-80
2022/09/06 09:12:19;;;;;;;;;;;20.10;99.90;;;;;;4965621;28;19949;-80
2022/09/06 09:14:47;;;;;;;;;;;20.20;99.90;;;;;;4965081;28;19932;-79
2022/09/06 09:17:19;;;;;;;;;;;20.30;99.90;;;;;;4965243;28;19926;-79
2022/09/06 09:19:44;;;;;;;;;;;20.30;99.90;;;;;;4964426;28;19930;-80
2022/09/06 09:22:17;;;;;;;;;;;20.30;99.90;;;;;;4965727;28;19953;-80
2022/09/06 09:24:44;;;;;;;;;;;20.40;99.90;;;;;;4964758;28;19930;-80
2022/09/06 09:27:10;;;;;;;;;;;20.40;99.90;;;;;;4966188;28;19926;-80
2022/09/06 09:29:54;;;;;;;;;;;20.50;99.90;;;;;;4965515;28;19933;-80
2022/09/06 09:32:30;;;;;;;;;;;20.50;99.90;;;;;;4965638;28;20214;-80
2022/09/06 09:35:13;;;;;;;;;;;20.50;99.90;;;;;;4971864;28;20013;-80
2022/09/06 09:37:39;;;;;;;;;;;20.60;99.90;;;;;;4984603;28;20372;-80
2022/09/06 09:40:05;;;;;;;;;;;20.70;99.90;;;;;;4972268;28;20009;-82
2022/09/06 09:42:34;;;;;;;;;;;20.70;99.90;;;;;;4966527;28;19932;-81
2022/09/06 09:45:01;;;;;;;;;;;20.80;99.90;;;;;;4965601;28;20381;-82
2022/09/06 09:47:27;;;;;;;;;;;20.90;99.90;;;;;;4967908;28;20427;-81
2022/09/06 09:49:53;;;;;;;;;;;20.90;99.90;;;;;;4983921;28;19933;-79
2022/09/06 09:52:30;;;;;;;;;;;20.90;99.90;;;;;;4980718;28;19930;-80
2022/09/06 09:54:56;;;;;;;;;;;21.00;99.90;;;;;;4966490;28;19953;-80
2022/09/06 09:57:22;;;;;;;;;;;21.00;99.90;;;;;;4966356;28;19926;-79
2022/09/06 09:59:52;;;;;;;;;;;21.10;99.90;;;;;;4964458;28;19926;-79
2022/09/06 10:02:28;;;;;;;;;;;21.20;99.90;;;;;;4968256;28;19922;-79
2022/09/06 10:05:05;;;;;;;;;;;21.20;99.90;;;;;;4984762;28;19925;-79
2022/09/06 10:07:32;;;;;;;;;;;21.20;99.90;;;;;;4965933;28;20018;-79
2022/09/06 10:10:03;;;;;;;;;;;21.20;99.90;;;;;;4973638;28;19961;-79
2022/09/06 10:12:29;;;;;;;;;;;21.20;99.90;;;;;;4965761;28;20007;-79
2022/09/06 10:14:55;;;;;;;;;;;21.30;99.90;;;;;;4966068;28;19926;-79
2022/09/06 10:17:31;;;;;;;;;;;21.30;99.90;;;;;;4966472;28;19934;-78
2022/09/06 10:20:02;;;;;;;;;;;21.30;99.90;;;;;;4964560;28;20246;-76
2022/09/06 10:22:34;;;;;;;;;;;21.40;99.90;;;;;;4969098;28;19981;-76
2022/09/06 10:25:05;;;;;;;;;;;21.50;99.90;;;;;;4971308;28;20439;-80
2022/09/06 10:27:32;;;;;;;;;;;21.50;99.90;;;;;;4973333;28;20436;-83
2022/09/06 10:29:57;;;;;;;;;;;21.60;99.90;;;;;;4979758;28;19957;-78
2022/09/06 10:32:46;;;;;;;;;;;21.60;99.90;;;;;;4980678;28;19926;-84
2022/09/06 10:35:19;;;;;;;;;;;21.60;99.90;;;;;;4973500;28;19933;-82
2022/09/06 10:38:02;;;;;;;;;;;21.70;99.90;;;;;;4973365;28;19972;-81
2022/09/06 10:40:33;;;;;;;;;;;21.70;99.90;;;;;;4978826;28;20151;-81
2022/09/06 10:43:00;;;;;;;;;;;21.80;99.90;;;;;;4977576;28;19926;-85
2022/09/06 10:45:39;;;;;;;;;;;21.80;99.90;;;;;;4976112;28;19926;-84
2022/09/06 10:48:12;;;;;;;;;;;21.80;99.90;;;;;;4974646;28;19962;-82
2022/09/06 10:50:41;;;;;;;;;;;21.90;99.90;;;;;;4976411;28;20012;-83
2022/09/06 10:53:18;;;;;;;;;;;21.90;99.90;;;;;;4981352;28;19918;-83
2022/09/06 10:55:46;;;;;;;;;;;21.90;99.90;;;;;;4974442;28;20296;-83
2022/09/06 10:58:15;;;;;;;;;;;21.90;99.90;;;;;;4974344;28;19926;-82
2022/09/06 11:00:45;;;;;;;;;;;22.00;99.90;;;;;;4977019;28;19948;-85
2022/09/06 11:03:12;;;;;;;;;;;22.10;99.90;;;;;;4975775;28;20346;-84
2022/09/06 11:05:43;;;;;;;;;;;22.10;99.90;;;;;;4975830;28;19933;-84
2022/09/06 11:08:13;;;;;;;;;;;22.10;99.90;;;;;;4973052;28;19926;-83
2022/09/06 11:10:44;;;;;;;;;;;22.20;99.90;;;;;;4980998;28;19933;-83
2022/09/06 11:13:16;;;;;;;;;;;22.30;99.90;;;;;;4965134;28;20449;-83
2022/09/06 11:16:00;;;;;;;;;;;22.30;99.90;;;;;;4977352;28;19926;-84
2022/09/06 11:18:44;;;;;;;;;;;22.40;99.90;;;;;;4983744;28;19926;-84
2022/09/06 11:21:27;;;;;;;;;;;22.40;99.90;;;;;;4981687;28;19988;-84
2022/09/06 11:23:52;;;;;;;;;;;22.50;99.90;;;;;;4968304;28;20001;-84
2022/09/06 11:26:35;;;;;;;;;;;22.60;99.90;;;;;;4964038;28;20029;-84
2022/09/06 11:29:17;;;;;;;;;;;22.60;99.90;;;;;;4979121;28;19985;-85
2022/09/06 11:31:50;;;;;;;;;;;22.60;99.90;;;;;;4946193;28;19926;-84
2022/09/06 11:34:23;;;;;;;;;;;22.60;99.90;;;;;;4964923;28;19999;-84
2022/09/06 11:36:49;;;;;;;;;;;22.70;99.90;;;;;;4982331;28;19936;-84
2022/09/06 11:39:22;;;;;;;;;;;22.80;99.90;;;;;;4981635;28;19925;-84
2022/09/06 11:41:48;;;;;;;;;;;22.90;99.90;;;;;;4981974;28;20224;-84
2022/09/06 11:44:33;;;;;;;;;;;22.90;99.90;;;;;;4982349;28;20001;-84
2022/09/06 11:46:59;;;;;;;;;;;22.90;99.90;;;;;;4978414;28;20364;-83
2022/09/06 11:49:29;;;;;;;;;;;23.00;99.90;;;;;;4962971;28;19926;-83
2022/09/06 11:51:55;;;;;;;;;;;23.00;99.90;;;;;;4964083;28;20452;-83
2022/09/06 11:54:31;;;;;;;;;;;23.00;99.90;;;;;;4979959;28;19934;-83
2022/09/06 11:57:01;;;;;;;;;;;23.00;99.90;;;;;;4970148;28;19933;-83
2022/09/06 11:59:32;;;;;;;;;;;23.00;99.90;;;;;;4976097;28;19969;-84
2022/09/06 12:01:58;;;;;;;;;;;23.00;99.90;;;;;;4983655;28;20261;-83
2022/09/06 12:04:43;;;;;;;;;;;23.00;99.90;;;;;;4975379;28;20356;-83
2022/09/06 12:07:10;;;;;;;;;;;23.10;99.90;;;;;;4963531;28;20514;-83
2022/09/06 12:09:37;;;;;;;;;;;23.10;99.90;;;;;;4963301;28;19933;-83
2022/09/06 12:12:03;;;;;;;;;;;23.20;99.90;;;;;;4964031;28;20222;-85
2022/09/06 12:14:31;;;;;;;;;;;23.20;99.90;;;;;;4962953;28;20000;-83
2022/09/06 12:16:57;;;;;;;;;;;23.30;99.90;;;;;;4962123;28;19926;-82
2022/09/06 12:19:41;;;;;;;;;;;23.30;99.90;;;;;;4967959;28;19953;-82
2022/09/06 12:22:31;;;;;;;;;;;23.30;99.90;;;;;;4982239;28;19989;-83
2022/09/06 12:25:04;;;;;;;;;;;23.40;99.90;;;;;;4978966;28;19926;-82
2022/09/06 12:27:33;;;;;;;;;;;23.40;99.90;;;;;;4949234;28;19926;-84
2022/09/06 12:30:03;;;;;;;;;;;23.30;99.90;;;;;;4966183;28;19926;-83
2022/09/06 12:32:48;;;;;;;;;;;23.30;99.90;;;;;;4967193;28;19927;-81
2022/09/06 12:35:15;;;;;;;;;;;23.30;99.90;;;;;;4975717;28;19933;-83
2022/09/06 12:37:55;;;;;;;;;;;23.30;99.90;;;;;;4979227;28;19941;-84
2022/09/06 12:40:22;;;;;;;;;;;23.30;99.90;;;;;;4977825;28;19973;-83
2022/09/06 12:42:48;;;;;;;;;;;23.30;99.90;;;;;;4979307;28;20001;-83
2022/09/06 12:45:14;;;;;;;;;;;23.40;99.90;;;;;;4983621;28;20008;-82
2022/09/06 12:47:40;;;;;;;;;;;23.50;99.90;;;;;;4965837;28;19985;-82
2022/09/06 12:50:17;;;;;;;;;;;23.70;99.90;;;;;;4965203;28;19922;-83
2022/09/06 12:52:47;;;;;;;;;;;23.80;99.90;;;;;;4966175;28;20021;-83
2022/09/06 12:55:21;;;;;;;;;;;23.90;99.90;;;;;;4967127;28;20292;-83
2022/09/06 12:57:48;;;;;;;;;;;24.00;99.90;;;;;;4965843;28;19926;-84
2022/09/06 13:00:13;;;;;;;;;;;24.00;99.90;;;;;;4966612;28;19926;-84
2022/09/06 13:02:43;;;;;;;;;;;24.10;99.90;;;;;;4965973;28;20127;-84
2022/09/06 13:05:10;;;;;;;;;;;24.20;99.90;;;;;;4965258;28;20377;-82
2022/09/06 13:07:39;;;;;;;;;;;24.30;99.90;;;;;;4966524;28;20447;-81
2022/09/06 13:10:05;;;;;;;;;;;24.40;99.90;;;;;;4965767;28;20340;-79
2022/09/06 13:12:36;;;;;;;;;;;24.40;99.90;;;;;;4978350;28;19926;-85
2022/09/06 13:15:07;;;;;;;;;;;24.50;99.90;;;;;;4974175;28;19953;-82
2022/09/06 13:17:34;;;;;;;;;;;24.50;99.90;;;;;;4984076;28;19926;-79
2022/09/06 13:20:08;;;;;;;;;;;24.50;99.90;;;;;;4966833;28;19934;-80
2022/09/06 13:22:42;;;;;;;;;;;24.50;99.90;;;;;;4964937;28;19976;-81
2022/09/06 13:25:15;;;;;;;;;;;24.50;99.90;;;;;;4965817;28;19926;-87
2022/09/06 13:27:44;;;;;;;;;;;24.50;99.90;;;;;;4965597;28;20436;-77
2022/09/06 13:30:28;;;;;;;;;;;24.50;99.90;;;;;;4966457;28;19977;-84
2022/09/06 13:32:54;;;;;;;;;;;24.60;99.90;;;;;;4966479;28;20503;-82
2022/09/06 13:35:24;;;;;;;;;;;24.60;99.90;;;;;;4973936;28;19933;-82
2022/09/06 13:37:49;;;;;;;;;;;24.60;99.90;;;;;;4976021;28;19972;-81
2022/09/06 13:40:34;;;;;;;;;;;24.60;99.90;;;;;;4974016;28;19965;-86
2022/09/06 13:42:59;;;;;;;;;;;24.60;99.90;;;;;;4973730;28;19930;-85
2022/09/06 13:45:27;;;;;;;;;;;24.60;99.90;;;;;;4971722;28;19940;-83
2022/09/06 13:47:52;;;;;;;;;;;24.60;99.90;;;;;;4975979;28;20401;-83
2022/09/06 13:50:18;;;;;;;;;;;24.70;99.90;;;;;;4980099;28;20146;-81
2022/09/06 13:52:44;;;;;;;;;;;24.70;99.90;;;;;;4981878;28;19929;-82
2022/09/06 13:55:12;;;;;;;;;;;24.70;99.90;;;;;;4983339;28;19933;-82
2022/09/06 13:57:38;;;;;;;;;;;24.80;99.90;;;;;;4983860;28;19926;-82
2022/09/06 14:00:04;;;;;;;;;;;24.80;99.90;;;;;;4983943;28;19925;-89
2022/09/06 14:02:29;;;;;;;;;;;24.80;99.90;;;;;;4982296;28;19934;-80
2022/09/06 14:04:55;;;;;;;;;;;24.80;99.90;;;;;;4986703;28;19925;-77
2022/09/06 14:07:21;;;;;;;;;;;24.70;99.90;;;;;;4977048;28;19926;-78
2022/09/06 14:09:48;;;;;;;;;;;24.80;99.90;;;;;;4974196;28;19934;-78
2022/09/06 14:12:14;;;;;;;;;;;24.80;99.90;;;;;;4981143;28;19926;-80
2022/09/06 14:14:39;;;;;;;;;;;24.80;99.90;;;;;;4973031;28;20332;-80
2022/09/06 14:17:05;;;;;;;;;;;24.90;99.90;;;;;;4974680;28;19941;-80
2022/09/06 14:19:30;;;;;;;;;;;24.90;99.90;;;;;;4967467;28;19926;-79
2022/09/06 14:21:56;;;;;;;;;;;24.90;99.90;;;;;;4968737;28;19932;-79
2022/09/06 14:24:22;;;;;;;;;;;25.00;99.90;;;;;;4973864;28;20331;-79